SXS22AB LTAI-EDDL
Flight info
| Callsign | SXS22AB |
|---|---|
| Flight time | N/A |
| Altitude | 36000 |
| Route | EKNUD UQ26 DIGBO UL615 VADEN DCT UTEKA DCT BABIT DCT SASAL DCT LAMSI DCT TESDU DCT AMETU T852 TINSA T854 DOMUX DOMUX1A |
| Aircraft | B738/M-SDE2E3FGHIRWXY/LB1 |
Departure
| Time | N/A |
|---|---|
| Airport | Antalya International Airport (LTAI) |
Arrival
| Time | 2026-05-04 20:31 |
|---|---|
| Airport | Düsseldorf Airport (EDDL) |
| Time | Latitude | Longitude | Altitude | Speed | Heading |
|---|---|---|---|---|---|
| 2026-05-04 19:54 | 49.90669 | 11.04172 | 35959 ft | 437 kts | 302° |
| 2026-05-04 19:54 | 49.94243 | 10.96558 | 35961 ft | 436 kts | 302° |
| 2026-05-04 19:55 | 49.97808 | 10.88943 | 35958 ft | 435 kts | 302° |
| 2026-05-04 19:55 | 50.01360 | 10.81332 | 35958 ft | 434 kts | 302° |
| 2026-05-04 19:56 | 50.04895 | 10.73736 | 35974 ft | 433 kts | 302° |
| 2026-05-04 19:56 | 50.08428 | 10.66123 | 35963 ft | 432 kts | 302° |
| 2026-05-04 19:57 | 50.11943 | 10.58525 | 35971 ft | 432 kts | 301° |
| 2026-05-04 19:57 | 50.15431 | 10.50964 | 35976 ft | 432 kts | 301° |
| 2026-05-04 19:58 | 50.18938 | 10.43344 | 35982 ft | 433 kts | 301° |
| 2026-05-04 19:58 | 50.22438 | 10.35678 | 35978 ft | 434 kts | 301° |
| 2026-05-04 19:59 | 50.25902 | 10.27943 | 35982 ft | 434 kts | 300° |
| 2026-05-04 19:59 | 50.29361 | 10.20179 | 35984 ft | 435 kts | 300° |
| 2026-05-04 20:00 | 50.32805 | 10.12437 | 35981 ft | 436 kts | 300° |
| 2026-05-04 20:00 | 50.36276 | 10.04621 | 35993 ft | 439 kts | 300° |
| 2026-05-04 20:01 | 50.39801 | 9.96658 | 36007 ft | 447 kts | 300° |
| 2026-05-04 20:01 | 50.43370 | 9.88572 | 36001 ft | 452 kts | 300° |
| 2026-05-04 20:02 | 50.46953 | 9.80438 | 35993 ft | 453 kts | 300° |
| 2026-05-04 20:02 | 50.50505 | 9.72346 | 35990 ft | 453 kts | 300° |
| 2026-05-04 20:03 | 50.54078 | 9.64181 | 35990 ft | 453 kts | 300° |
| 2026-05-04 20:03 | 50.57640 | 9.56013 | 35990 ft | 450 kts | 300° |
| 2026-05-04 20:03 | 50.59385 | 9.52012 | 35976 ft | 435 kts | 300° |
| 2026-05-04 20:04 | 50.61069 | 9.48148 | 35972 ft | 421 kts | 299° |
| 2026-05-04 20:04 | 50.63792 | 9.41870 | 35985 ft | 416 kts | 299° |
| 2026-05-04 20:04 | 50.65409 | 9.38130 | 35812 ft | 409 kts | 299° |
| 2026-05-04 20:05 | 50.67517 | 9.33246 | 35206 ft | 406 kts | 298° |
| 2026-05-04 20:05 | 50.69110 | 9.29544 | 34687 ft | 407 kts | 298° |
| 2026-05-04 20:05 | 50.70182 | 9.27053 | 34393 ft | 406 kts | 298° |
| 2026-05-04 20:05 | 50.71740 | 9.23432 | 34051 ft | 402 kts | 298° |
| 2026-05-04 20:06 | 50.73301 | 9.19800 | 33682 ft | 398 kts | 298° |
| 2026-05-04 20:06 | 50.74851 | 9.16190 | 33238 ft | 396 kts | 298° |
| 2026-05-04 20:06 | 50.76388 | 9.12599 | 32784 ft | 394 kts | 298° |
| 2026-05-04 20:06 | 50.77920 | 9.09017 | 32357 ft | 392 kts | 298° |
| 2026-05-04 20:07 | 50.79446 | 9.05447 | 31946 ft | 390 kts | 298° |
| 2026-05-04 20:07 | 50.80960 | 9.01900 | 31550 ft | 388 kts | 298° |
| 2026-05-04 20:07 | 50.82466 | 8.98367 | 31145 ft | 386 kts | 298° |
| 2026-05-04 20:07 | 50.84001 | 8.94887 | 30760 ft | 386 kts | 301° |
| 2026-05-04 20:08 | 50.85644 | 8.91530 | 30381 ft | 386 kts | 303° |
| 2026-05-04 20:08 | 50.87327 | 8.88230 | 30006 ft | 384 kts | 304° |
| 2026-05-04 20:08 | 50.89005 | 8.84958 | 29567 ft | 382 kts | 304° |
| 2026-05-04 20:08 | 50.90670 | 8.81688 | 29122 ft | 380 kts | 303° |
| 2026-05-04 20:09 | 50.92316 | 8.78430 | 28719 ft | 377 kts | 303° |
| 2026-05-04 20:09 | 50.93943 | 8.75184 | 28311 ft | 375 kts | 303° |
| 2026-05-04 20:09 | 50.95556 | 8.71955 | 27909 ft | 373 kts | 303° |
| 2026-05-04 20:09 | 50.97159 | 8.68739 | 27503 ft | 370 kts | 303° |
| 2026-05-04 20:10 | 50.98754 | 8.65534 | 27095 ft | 369 kts | 303° |
| 2026-05-04 20:10 | 51.00338 | 8.62350 | 26721 ft | 367 kts | 303° |
| 2026-05-04 20:10 | 51.01995 | 8.59276 | 26317 ft | 369 kts | 314° |
| 2026-05-04 20:10 | 51.04058 | 8.56898 | 26068 ft | 368 kts | 322° |
| 2026-05-04 20:11 | 51.06186 | 8.54738 | 26007 ft | 357 kts | 323° |
| 2026-05-04 20:11 | 51.08256 | 8.52669 | 25987 ft | 345 kts | 323° |
| 2026-05-04 20:11 | 51.10248 | 8.50662 | 25970 ft | 333 kts | 322° |
| 2026-05-04 20:11 | 51.12187 | 8.48684 | 25836 ft | 334 kts | 322° |
| 2026-05-04 20:12 | 51.14247 | 8.46541 | 25072 ft | 374 kts | 322° |
| 2026-05-04 20:12 | 51.16520 | 8.44161 | 24471 ft | 407 kts | 323° |
| 2026-05-04 20:12 | 51.18935 | 8.41637 | 23942 ft | 417 kts | 323° |
| 2026-05-04 20:12 | 51.21337 | 8.39138 | 23454 ft | 416 kts | 323° |
| 2026-05-04 20:13 | 51.23757 | 8.36616 | 22844 ft | 414 kts | 323° |
| 2026-05-04 20:13 | 51.26161 | 8.34103 | 22254 ft | 412 kts | 323° |
| 2026-05-04 20:13 | 51.28552 | 8.31595 | 21671 ft | 410 kts | 323° |
| 2026-05-04 20:13 | 51.30933 | 8.29093 | 21108 ft | 408 kts | 323° |
| 2026-05-04 20:14 | 51.33301 | 8.26600 | 20557 ft | 406 kts | 323° |
| 2026-05-04 20:14 | 51.35651 | 8.24125 | 20019 ft | 404 kts | 324° |
| 2026-05-04 20:14 | 51.38002 | 8.21664 | 19536 ft | 400 kts | 324° |
| 2026-05-04 20:14 | 51.40322 | 8.19240 | 19106 ft | 395 kts | 324° |
| 2026-05-04 20:15 | 51.42588 | 8.16867 | 18666 ft | 383 kts | 324° |
| 2026-05-04 20:15 | 51.44753 | 8.14579 | 18322 ft | 370 kts | 323° |
| 2026-05-04 20:15 | 51.46854 | 8.12352 | 18016 ft | 355 kts | 323° |
| 2026-05-04 20:15 | 51.48748 | 8.09967 | 17681 ft | 338 kts | 307° |
| 2026-05-04 20:16 | 51.49930 | 8.06854 | 17386 ft | 318 kts | 286° |
| 2026-05-04 20:16 | 51.50396 | 8.03466 | 17102 ft | 305 kts | 270° |
| 2026-05-04 20:16 | 51.50273 | 8.00106 | 16831 ft | 300 kts | 256° |
| 2026-05-04 20:16 | 51.49763 | 7.96871 | 16558 ft | 299 kts | 251° |
| 2026-05-04 20:17 | 51.49176 | 7.93665 | 16279 ft | 299 kts | 251° |
| 2026-05-04 20:17 | 51.48594 | 7.90458 | 15996 ft | 300 kts | 251° |
| 2026-05-04 20:17 | 51.48015 | 7.87240 | 15725 ft | 300 kts | 251° |
| 2026-05-04 20:17 | 51.47435 | 7.84020 | 15445 ft | 301 kts | 251° |
| 2026-05-04 20:18 | 51.46861 | 7.80810 | 15148 ft | 298 kts | 252° |
| 2026-05-04 20:18 | 51.46292 | 7.77627 | 14883 ft | 297 kts | 251° |
| 2026-05-04 20:18 | 51.45721 | 7.74443 | 14613 ft | 298 kts | 252° |
| 2026-05-04 20:18 | 51.45148 | 7.71236 | 14343 ft | 299 kts | 252° |
| 2026-05-04 20:19 | 51.44583 | 7.68065 | 14069 ft | 301 kts | 252° |
| 2026-05-04 20:19 | 51.44008 | 7.64833 | 13789 ft | 302 kts | 252° |
| 2026-05-04 20:19 | 51.43434 | 7.61611 | 13477 ft | 299 kts | 252° |
| 2026-05-04 20:19 | 51.42863 | 7.58418 | 13174 ft | 296 kts | 252° |
| 2026-05-04 20:20 | 51.42298 | 7.55262 | 12877 ft | 293 kts | 252° |
| 2026-05-04 20:20 | 51.41742 | 7.52139 | 12619 ft | 290 kts | 252° |
| 2026-05-04 20:20 | 51.41209 | 7.49049 | 12348 ft | 287 kts | 252° |
| 2026-05-04 20:20 | 51.40684 | 7.45983 | 12078 ft | 284 kts | 252° |
| 2026-05-04 20:21 | 51.40170 | 7.42979 | 11813 ft | 277 kts | 252° |
| 2026-05-04 20:21 | 51.39661 | 7.40016 | 11443 ft | 277 kts | 252° |
| 2026-05-04 20:21 | 51.40188 | 7.34046 | 10454 ft | 288 kts | 304° |
| 2026-05-04 20:22 | 51.41629 | 7.31806 | 9995 ft | 290 kts | 320° |
| 2026-05-04 20:22 | 51.43283 | 7.29962 | 9478 ft | 290 kts | 324° |
| 2026-05-04 20:22 | 51.44975 | 7.28198 | 8935 ft | 290 kts | 325° |
| 2026-05-04 20:22 | 51.46669 | 7.26431 | 8370 ft | 290 kts | 323° |
| 2026-05-04 20:23 | 51.48270 | 7.24478 | 7810 ft | 289 kts | 315° |
| 2026-05-04 20:23 | 51.49579 | 7.22059 | 7119 ft | 289 kts | 294° |
| 2026-05-04 20:23 | 51.49968 | 7.18953 | 6458 ft | 284 kts | 261° |
| 2026-05-04 20:23 | 51.49262 | 7.16185 | 6079 ft | 263 kts | 228° |
| 2026-05-04 20:24 | 51.47894 | 7.14414 | 5747 ft | 245 kts | 215° |
| 2026-05-04 20:24 | 51.46597 | 7.12774 | 5437 ft | 230 kts | 220° |
| 2026-05-04 20:24 | 51.45471 | 7.11083 | 5147 ft | 214 kts | 224° |
| 2026-05-04 20:24 | 51.44452 | 7.09399 | 4885 ft | 207 kts | 227° |
| 2026-05-04 20:25 | 51.43544 | 7.07708 | 4625 ft | 195 kts | 230° |
| 2026-05-04 20:25 | 51.42739 | 7.06097 | 4398 ft | 177 kts | 231° |
| 2026-05-04 20:25 | 51.42017 | 7.04614 | 4159 ft | 161 kts | 231° |
| 2026-05-04 20:25 | 51.41372 | 7.03276 | 3999 ft | 143 kts | 231° |
| 2026-05-04 20:26 | 51.40759 | 7.02000 | 3803 ft | 145 kts | 231° |
| 2026-05-04 20:26 | 51.40141 | 7.00714 | 3600 ft | 147 kts | 231° |
| 2026-05-04 20:26 | 51.39484 | 6.99346 | 3406 ft | 158 kts | 231° |
| 2026-05-04 20:26 | 51.38779 | 6.97875 | 3160 ft | 180 kts | 231° |
| 2026-05-04 20:27 | 51.38008 | 6.96260 | 2918 ft | 180 kts | 231° |
| 2026-05-04 20:27 | 51.37256 | 6.94687 | 2684 ft | 176 kts | 231° |
| 2026-05-04 20:27 | 51.36526 | 6.93158 | 2455 ft | 169 kts | 231° |
| 2026-05-04 20:27 | 51.35813 | 6.91666 | 2235 ft | 169 kts | 231° |
| 2026-05-04 20:28 | 51.35097 | 6.90167 | 2018 ft | 170 kts | 231° |
| 2026-05-04 20:28 | 51.34378 | 6.88663 | 1779 ft | 168 kts | 231° |
| 2026-05-04 20:28 | 51.33704 | 6.87249 | 1569 ft | 152 kts | 231° |
| 2026-05-04 20:28 | 51.33092 | 6.85965 | 1404 ft | 143 kts | 231° |
| 2026-05-04 20:29 | 51.32491 | 6.84706 | 1212 ft | 142 kts | 231° |
| 2026-05-04 20:29 | 51.31905 | 6.83477 | 1020 ft | 139 kts | 230° |
| 2026-05-04 20:29 | 51.31325 | 6.82260 | 847 ft | 137 kts | 231° |
| 2026-05-04 20:29 | 51.30740 | 6.81035 | 660 ft | 140 kts | 231° |
| 2026-05-04 20:30 | 51.30155 | 6.79806 | 473 ft | 138 kts | 231° |
| 2026-05-04 20:30 | 51.29544 | 6.78517 | 259 ft | 142 kts | 230° |
| 2026-05-04 20:30 | 51.28955 | 6.77283 | 126 ft | 132 kts | 232° |
| 2026-05-04 20:30 | 51.28622 | 6.76586 | 126 ft | 108 kts | 232° |
| 2026-05-04 20:31 | 51.28391 | 6.76124 | 123 ft | 47 kts | 224° |
| 2026-05-04 20:31 | 51.28232 | 6.76053 | 127 ft | 1 kts | 159° |
| 2026-05-04 20:31 | 51.28223 | 6.76059 | 124 ft | 4 kts | 159° |
| 2026-05-04 20:32 | 51.28205 | 6.76073 | 126 ft | 0 kts | 148° |
| 2026-05-04 20:34 | 51.28199 | 6.76079 | 127 ft | 4 kts | 148° |
| 2026-05-04 20:34 | 51.28166 | 6.76083 | 128 ft | 5 kts | 198° |
| 2026-05-04 20:34 | 51.28129 | 6.76032 | 126 ft | 8 kts | 223° |
| 2026-05-04 20:35 | 51.28072 | 6.76033 | 127 ft | 10 kts | 164° |
| 2026-05-04 20:35 | 51.28000 | 6.76047 | 123 ft | 11 kts | 178° |
| 2026-05-04 20:35 | 51.27928 | 6.76049 | 127 ft | 10 kts | 179° |
| 2026-05-04 20:35 | 51.27857 | 6.76045 | 125 ft | 10 kts | 182° |
| 2026-05-04 20:36 | 51.27788 | 6.76043 | 128 ft | 10 kts | 181° |
| 2026-05-04 20:36 | 51.27722 | 6.76041 | 129 ft | 9 kts | 181° |
| 2026-05-04 20:36 | 51.27657 | 6.76039 | 128 ft | 9 kts | 181° |
| 2026-05-04 20:36 | 51.27594 | 6.76067 | 126 ft | 10 kts | 152° |
| 2026-05-04 20:37 | 51.27531 | 6.76124 | 129 ft | 10 kts | 139° |
| 2026-05-04 20:37 | 51.27519 | 6.76229 | 129 ft | 10 kts | 76° |
| 2026-05-04 20:37 | 51.27545 | 6.76335 | 127 ft | 10 kts | 67° |
| 2026-05-04 20:37 | 51.27599 | 6.76388 | 128 ft | 10 kts | 347° |
| 2026-05-04 20:38 | 51.27625 | 6.76373 | 124 ft | 2 kts | 341° |
| 2026-05-04 20:38 | 51.27628 | 6.76371 | 124 ft | 0 kts | 341° |
| 2026-05-04 20:38 | 51.27629 | 6.76371 | 124 ft | 0 kts | 341° |